createdAt,value
2022-12-11T00:02:41.240Z,33.14
2022-12-11T00:05:44.109Z,33.36
2022-12-11T00:08:46.451Z,33.17
2022-12-11T00:11:48.862Z,33.30
2022-12-11T00:14:50.908Z,33.45
2022-12-11T00:17:52.986Z,33.36
2022-12-11T00:20:55.055Z,33.31
2022-12-11T00:23:57.147Z,33.37
2022-12-11T00:26:59.270Z,33.31
2022-12-11T00:30:01.372Z,33.39
2022-12-11T00:33:03.551Z,33.31
2022-12-11T00:36:11.898Z,33.29
2022-12-11T00:39:13.960Z,33.36
2022-12-11T00:42:16.107Z,33.24
2022-12-11T00:45:18.208Z,33.22
2022-12-11T00:48:20.260Z,33.32
2022-12-11T00:51:22.411Z,33.31
2022-12-11T00:54:24.471Z,33.33
2022-12-11T00:57:26.503Z,33.19
2022-12-11T01:00:28.592Z,33.18
2022-12-11T01:03:30.691Z,33.12
2022-12-11T01:06:32.833Z,33.10
2022-12-11T01:09:53.529Z,33.24
2022-12-11T01:13:04.261Z,33.13
2022-12-11T01:16:11.829Z,33.21
2022-12-11T01:19:13.966Z,33.21
2022-12-11T01:22:16.007Z,33.21
2022-12-11T01:25:18.144Z,33.06
2022-12-11T01:28:20.246Z,33.21
2022-12-11T01:31:22.330Z,33.06
2022-12-11T01:34:24.434Z,32.88
2022-12-11T01:37:26.568Z,33.00
2022-12-11T01:40:29.195Z,32.94
2022-12-11T01:43:31.307Z,32.92
2022-12-11T01:46:35.307Z,32.93
2022-12-11T01:49:39.533Z,32.95
2022-12-11T01:52:43.534Z,32.94
2022-12-11T01:55:46.650Z,32.86
2022-12-11T01:58:55.139Z,32.92
2022-12-11T02:02:01.182Z,32.80
2022-12-11T02:05:05.394Z,32.70
2022-12-11T02:08:07.972Z,32.95
2022-12-11T02:11:16.736Z,32.68
2022-12-11T02:14:43.077Z,32.76
2022-12-11T02:18:24.013Z,32.66
2022-12-11T02:21:30.177Z,32.82
2022-12-11T02:24:38.260Z,32.69
2022-12-11T02:27:47.495Z,32.31
2022-12-11T02:30:57.453Z,32.77
2022-12-11T02:33:59.448Z,32.44
2022-12-11T02:37:06.942Z,32.55
2022-12-11T02:40:11.388Z,32.46
2022-12-11T02:43:14.579Z,32.57
2022-12-11T02:46:18.117Z,32.37
2022-12-11T02:49:21.037Z,32.76
2022-12-11T02:52:25.608Z,32.24
2022-12-11T02:55:29.547Z,32.41
2022-12-11T02:58:32.719Z,32.30
2022-12-11T03:01:34.885Z,32.35
2022-12-11T03:04:37.496Z,32.29
2022-12-11T03:07:42.180Z,32.28
2022-12-11T03:10:45.481Z,32.22
2022-12-11T03:13:47.665Z,32.23
2022-12-11T03:17:05.560Z,32.23
2022-12-11T03:20:31.516Z,31.96
2022-12-11T03:23:41.468Z,32.18
2022-12-11T03:26:47.143Z,32.21
2022-12-11T03:30:02.354Z,32.09
2022-12-11T03:33:12.023Z,32.16
2022-12-11T03:36:19.271Z,32.12
2022-12-11T03:39:27.716Z,31.92
2022-12-11T03:42:29.864Z,31.96
2022-12-11T03:45:32.916Z,32.04
2022-12-11T03:48:38.820Z,31.86
2022-12-11T03:51:42.278Z,31.97
2022-12-11T03:54:46.922Z,32.11
2022-12-11T03:57:48.999Z,32.01
2022-12-11T04:00:51.133Z,32.03
2022-12-11T04:03:53.313Z,31.80
2022-12-11T04:06:55.505Z,31.71
2022-12-11T04:09:57.577Z,31.93
2022-12-11T04:12:59.642Z,31.86
2022-12-11T04:16:01.788Z,31.78
2022-12-11T04:19:23.097Z,31.63
2022-12-11T04:22:43.756Z,31.81
2022-12-11T04:25:45.871Z,31.66
2022-12-11T04:28:48.742Z,31.57
2022-12-11T04:31:50.867Z,31.51
2022-12-11T04:34:53.032Z,31.80
2022-12-11T04:37:55.259Z,31.64
2022-12-11T04:41:01.870Z,31.42
2022-12-11T04:44:04.179Z,31.44
2022-12-11T04:47:06.309Z,31.57
2022-12-11T04:50:10.129Z,31.31
2022-12-11T04:53:12.277Z,31.50
2022-12-11T04:56:15.976Z,31.42
2022-12-11T04:59:18.140Z,31.20
2022-12-11T05:02:20.268Z,31.55
2022-12-11T05:05:22.363Z,31.36
2022-12-11T05:08:24.596Z,31.31
2022-12-11T05:11:26.780Z,31.47
2022-12-11T05:14:31.919Z,31.38
2022-12-11T05:17:34.043Z,31.54
2022-12-11T05:20:36.186Z,31.40
2022-12-11T05:23:38.688Z,31.30
2022-12-11T05:26:40.855Z,31.33
2022-12-11T05:29:43.105Z,31.52
2022-12-11T05:32:45.280Z,31.45
2022-12-11T05:35:48.204Z,31.35
2022-12-11T05:38:51.540Z,31.35
2022-12-11T05:41:53.713Z,31.22
2022-12-11T05:44:55.844Z,31.55
2022-12-11T05:47:58.083Z,31.11
2022-12-11T05:51:01.602Z,31.28
2022-12-11T05:54:03.997Z,31.23
2022-12-11T05:57:06.089Z,31.25
2022-12-11T06:00:09.137Z,31.23
2022-12-11T06:03:11.311Z,31.33
2022-12-11T06:06:13.892Z,31.15
2022-12-11T06:09:17.081Z,31.25
2022-12-11T06:12:19.221Z,31.32
2022-12-11T06:15:21.440Z,31.04
2022-12-11T06:18:23.508Z,31.01
2022-12-11T06:21:28.239Z,31.14
2022-12-11T06:24:30.348Z,31.21
2022-12-11T06:27:32.424Z,31.22
2022-12-11T06:30:39.130Z,31.24
2022-12-11T06:33:42.058Z,31.15
2022-12-11T06:36:44.184Z,31.07
2022-12-11T06:39:46.250Z,31.31
2022-12-11T06:42:48.410Z,31.09
2022-12-11T06:45:51.120Z,31.08
2022-12-11T06:48:53.224Z,30.97
2022-12-11T06:51:55.327Z,31.02
2022-12-11T06:54:57.492Z,31.02
2022-12-11T06:57:59.592Z,31.10
2022-12-11T07:01:02.180Z,30.80
2022-12-11T07:04:04.368Z,31.00
2022-12-11T07:07:06.797Z,31.04
2022-12-11T07:10:09.610Z,30.96
2022-12-11T07:13:11.818Z,30.81
2022-12-11T07:16:15.196Z,30.93
2022-12-11T07:19:17.645Z,31.01
2022-12-11T07:22:19.731Z,30.97
2022-12-11T07:25:21.866Z,30.83
2022-12-11T07:28:24.135Z,30.82
2022-12-11T07:31:28.509Z,30.83
2022-12-11T07:34:30.621Z,30.72
2022-12-11T07:37:32.975Z,30.90
2022-12-11T07:40:35.077Z,30.72
2022-12-11T07:43:37.963Z,30.85
2022-12-11T07:46:40.132Z,30.75
2022-12-11T07:49:42.276Z,30.64
2022-12-11T07:52:44.581Z,30.58
2022-12-11T07:55:46.676Z,30.70
2022-12-11T07:58:48.855Z,30.71
2022-12-11T08:01:51.023Z,30.64
2022-12-11T08:04:53.115Z,30.44
2022-12-11T08:07:55.730Z,30.34
2022-12-11T08:11:04.544Z,30.64
2022-12-11T08:14:08.695Z,30.74
2022-12-11T08:17:10.778Z,30.64
2022-12-11T08:20:13.148Z,30.60
2022-12-11T08:23:15.312Z,30.63
2022-12-11T08:26:36.371Z,30.64
2022-12-11T08:29:38.594Z,30.63
2022-12-11T08:32:41.108Z,30.62
2022-12-11T08:35:44.113Z,30.54
2022-12-11T08:38:46.974Z,30.63
2022-12-11T08:41:49.108Z,30.72
2022-12-11T08:44:51.795Z,30.29
2022-12-11T08:47:55.515Z,30.49
2022-12-11T08:51:02.180Z,30.63
2022-12-11T08:54:04.297Z,30.30
2022-12-11T08:57:06.377Z,30.48
2022-12-11T09:00:09.500Z,30.50
2022-12-11T09:03:13.110Z,30.45
2022-12-11T09:06:18.124Z,30.52
2022-12-11T09:09:20.342Z,30.30
2022-12-11T09:12:23.078Z,30.49
2022-12-11T09:15:25.140Z,30.44
2022-12-11T09:18:27.274Z,30.42
2022-12-11T09:21:30.358Z,30.51
2022-12-11T09:24:32.501Z,30.20
2022-12-11T09:27:35.318Z,30.30
2022-12-11T09:30:37.484Z,30.38
2022-12-11T09:33:40.451Z,30.20
2022-12-11T09:36:44.296Z,30.28
2022-12-11T09:39:46.536Z,30.21
2022-12-11T09:42:58.308Z,30.14
2022-12-11T09:46:03.689Z,30.20
2022-12-11T09:49:15.120Z,30.17
2022-12-11T09:52:52.575Z,30.13
2022-12-11T09:56:04.702Z,30.01
2022-12-11T09:59:28.321Z,30.18
2022-12-11T10:03:07.140Z,30.07
2022-12-11T10:06:17.929Z,30.06
2022-12-11T10:09:28.010Z,30.14
2022-12-11T10:12:55.587Z,29.88
2022-12-11T10:16:07.755Z,30.18
2022-12-11T10:19:27.794Z,29.94
2022-12-11T10:22:31.626Z,29.92
2022-12-11T10:25:41.404Z,30.15
2022-12-11T10:28:43.648Z,29.79
2022-12-11T10:31:57.390Z,30.01
2022-12-11T10:35:01.804Z,29.93
2022-12-11T10:38:30.957Z,29.92
2022-12-11T10:41:44.123Z,29.95
2022-12-11T10:45:00.821Z,30.29
2022-12-11T10:48:09.824Z,29.91
2022-12-11T10:51:12.208Z,29.90
2022-12-11T10:54:38.125Z,29.80
2022-12-11T10:57:40.324Z,29.86
2022-12-11T11:00:42.447Z,29.89
2022-12-11T11:04:06.268Z,29.90
2022-12-11T11:07:19.481Z,29.83
2022-12-11T11:10:21.670Z,29.93
2022-12-11T11:13:25.924Z,29.72
2022-12-11T11:16:28.187Z,29.75
2022-12-11T11:19:35.184Z,29.67
2022-12-11T11:22:41.735Z,29.72
2022-12-11T11:26:10.255Z,29.61
2022-12-11T11:29:32.067Z,29.75
2022-12-11T11:32:39.167Z,29.51
2022-12-11T11:36:02.387Z,29.74
2022-12-11T11:39:17.944Z,29.68
2022-12-11T11:42:28.912Z,29.93
2022-12-11T11:45:45.215Z,29.89
2022-12-11T11:49:12.195Z,29.61
2022-12-11T11:52:35.497Z,29.44
2022-12-11T11:55:52.025Z,29.54
2022-12-11T11:59:03.968Z,29.48
2022-12-11T12:02:14.836Z,29.76
2022-12-11T12:05:23.857Z,29.58
2022-12-11T12:08:32.616Z,29.73
2022-12-11T12:11:42.840Z,29.61
2022-12-11T12:14:54.892Z,29.58
2022-12-11T12:18:15.100Z,29.47
2022-12-11T12:21:44.738Z,29.65
2022-12-11T12:24:59.308Z,29.60
2022-12-11T12:28:22.837Z,29.57
2022-12-11T12:31:34.689Z,29.75
2022-12-11T12:34:44.083Z,29.50
2022-12-11T12:37:55.403Z,29.57
2022-12-11T12:41:22.780Z,29.47
2022-12-11T12:44:25.620Z,29.82
2022-12-11T12:47:31.367Z,29.59
2022-12-11T12:50:38.942Z,29.59
2022-12-11T12:53:44.268Z,29.57
2022-12-11T12:56:47.058Z,29.57
2022-12-11T12:59:54.752Z,29.77
2022-12-11T13:02:57.220Z,29.36
2022-12-11T13:06:03.109Z,29.46
2022-12-11T13:09:26.443Z,29.61
2022-12-11T13:12:43.124Z,29.45
2022-12-11T13:15:45.381Z,29.54
2022-12-11T13:18:48.374Z,29.60
2022-12-11T13:22:12.868Z,29.40
2022-12-11T13:25:34.391Z,29.57
2022-12-11T13:28:39.484Z,29.39
2022-12-11T13:31:44.123Z,29.53
2022-12-11T13:34:54.268Z,29.41
2022-12-11T13:38:07.061Z,29.34
2022-12-11T13:41:12.656Z,29.27
2022-12-11T13:44:39.608Z,29.48
2022-12-11T13:47:41.880Z,29.48
2022-12-11T13:50:44.516Z,29.68
2022-12-11T13:53:47.000Z,29.32
2022-12-11T13:57:04.215Z,29.54
2022-12-11T14:00:21.393Z,29.41
2022-12-11T14:03:23.747Z,29.33
2022-12-11T14:06:27.576Z,29.26
2022-12-11T14:09:29.820Z,29.30
2022-12-11T14:12:32.837Z,29.32
2022-12-11T14:15:36.221Z,29.29
2022-12-11T14:18:38.451Z,29.38
2022-12-11T14:21:40.588Z,29.23
2022-12-11T14:24:52.720Z,29.57
2022-12-11T14:27:56.535Z,29.37
2022-12-11T14:30:59.797Z,29.28
2022-12-11T14:34:30.219Z,29.31
2022-12-11T14:37:33.155Z,29.32
2022-12-11T14:40:39.323Z,29.35
2022-12-11T14:43:51.535Z,29.14
2022-12-11T14:46:57.988Z,29.22
2022-12-11T14:50:05.839Z,29.21
2022-12-11T14:53:15.801Z,29.29
2022-12-11T14:56:27.012Z,29.34
2022-12-11T14:59:32.065Z,29.10
2022-12-11T15:02:36.400Z,29.24
2022-12-11T15:05:56.495Z,29.10
2022-12-11T15:09:28.496Z,29.21
2022-12-11T15:12:31.099Z,29.33
2022-12-11T15:15:39.151Z,29.14
2022-12-11T15:18:47.529Z,28.77
2022-12-11T15:21:49.912Z,28.97
2022-12-11T15:24:54.025Z,29.11
2022-12-11T15:27:58.731Z,28.93
2022-12-11T15:31:04.307Z,29.09
2022-12-11T15:34:23.315Z,29.05
2022-12-11T15:37:28.306Z,29.15
2022-12-11T15:40:30.576Z,29.18
2022-12-11T15:43:36.439Z,29.28
2022-12-11T15:46:38.608Z,28.96
2022-12-11T15:49:41.139Z,29.08
2022-12-11T15:52:44.069Z,29.03
2022-12-11T15:55:46.400Z,28.97
2022-12-11T15:58:48.903Z,28.91
2022-12-11T16:01:51.173Z,28.90
2022-12-11T16:04:54.034Z,29.21
2022-12-11T16:07:59.387Z,28.94
2022-12-11T16:11:01.793Z,29.04
2022-12-11T16:14:04.528Z,29.00
2022-12-11T16:17:07.968Z,28.77
2022-12-11T16:20:11.008Z,28.82
2022-12-11T16:23:14.770Z,28.90
2022-12-11T16:26:16.928Z,28.93
2022-12-11T16:29:19.017Z,28.69
2022-12-11T16:32:21.231Z,28.81
2022-12-11T16:35:23.587Z,28.84
2022-12-11T16:38:25.709Z,28.83
2022-12-11T16:41:27.783Z,28.80
2022-12-11T16:44:29.865Z,28.64
2022-12-11T16:47:32.029Z,28.67
2022-12-11T16:50:34.548Z,28.79
2022-12-11T16:53:36.674Z,28.66
2022-12-11T16:56:39.297Z,28.69
2022-12-11T16:59:43.216Z,28.68
2022-12-11T17:02:45.341Z,28.85
2022-12-11T17:05:47.517Z,28.28
2022-12-11T17:08:49.627Z,28.57
2022-12-11T17:11:51.682Z,28.55
2022-12-11T17:14:54.840Z,28.71
2022-12-11T17:17:57.051Z,28.63
2022-12-11T17:20:59.777Z,28.68
2022-12-11T17:24:01.916Z,28.59
2022-12-11T17:27:04.090Z,28.57
2022-12-11T17:30:06.773Z,28.45
2022-12-11T17:33:08.969Z,28.54
2022-12-11T17:36:14.147Z,28.55
2022-12-11T17:39:16.625Z,28.14
2022-12-11T17:42:18.786Z,28.46
2022-12-11T17:45:20.882Z,28.58
2022-12-11T17:48:23.108Z,28.15
2022-12-11T17:51:25.228Z,28.49
2022-12-11T17:54:27.357Z,28.29
2022-12-11T17:57:29.468Z,28.27
2022-12-11T18:00:33.350Z,28.40
2022-12-11T18:03:36.437Z,28.22
2022-12-11T18:06:38.561Z,28.35
2022-12-11T18:09:41.060Z,28.38
2022-12-11T18:12:43.110Z,28.37
2022-12-11T18:15:45.261Z,28.38
2022-12-11T18:18:48.198Z,28.34
2022-12-11T18:21:50.474Z,28.34
2022-12-11T18:24:52.600Z,28.18
2022-12-11T18:27:55.206Z,28.33
2022-12-11T18:31:00.872Z,28.01
2022-12-11T18:34:03.254Z,28.28
2022-12-11T18:37:05.351Z,28.34
2022-12-11T18:40:08.338Z,28.38
2022-12-11T18:43:10.449Z,28.28
2022-12-11T18:46:15.141Z,28.18
2022-12-11T18:49:17.452Z,28.26
2022-12-11T18:52:19.645Z,28.20
2022-12-11T18:55:21.983Z,27.94
2022-12-11T18:58:24.110Z,28.12
2022-12-11T19:01:28.771Z,28.19
2022-12-11T19:04:30.899Z,28.04
2022-12-11T19:07:33.071Z,28.01
2022-12-11T19:10:44.584Z,28.08
2022-12-11T19:13:47.204Z,28.14
2022-12-11T19:16:50.758Z,28.16
2022-12-11T19:19:53.179Z,28.09
2022-12-11T19:22:55.317Z,27.99
2022-12-11T19:25:57.484Z,28.03
2022-12-11T19:29:00.313Z,28.01
2022-12-11T19:32:02.943Z,28.07
2022-12-11T19:35:05.322Z,28.07
2022-12-11T19:38:08.375Z,27.83
2022-12-11T19:41:14.735Z,28.00
2022-12-11T19:44:16.813Z,28.05
2022-12-11T19:47:18.912Z,27.88
2022-12-11T19:50:24.526Z,27.97
2022-12-11T19:53:26.633Z,28.01
2022-12-11T19:56:29.136Z,27.96
2022-12-11T19:59:31.233Z,28.08
2022-12-11T20:02:33.479Z,27.91
2022-12-11T20:05:35.776Z,28.12
2022-12-11T20:08:46.006Z,27.94
2022-12-11T20:11:48.651Z,27.92
2022-12-11T20:14:50.821Z,27.93
2022-12-11T20:17:57.072Z,27.86
2022-12-11T20:21:03.942Z,27.82
2022-12-11T20:24:06.331Z,27.93
2022-12-11T20:27:09.556Z,27.72
2022-12-11T20:30:12.456Z,27.84
2022-12-11T20:33:14.588Z,28.04
2022-12-11T20:36:18.263Z,28.00
2022-12-11T20:39:20.385Z,27.71
2022-12-11T20:42:22.694Z,27.65
2022-12-11T20:45:25.319Z,28.02
2022-12-11T20:48:27.576Z,28.00
2022-12-11T20:51:30.274Z,27.95
2022-12-11T20:54:32.584Z,28.04
2022-12-11T20:57:34.687Z,27.92
2022-12-11T21:00:37.733Z,28.07
2022-12-11T21:03:42.108Z,27.94
2022-12-11T21:06:44.580Z,27.64
2022-12-11T21:09:46.953Z,28.02
2022-12-11T21:12:49.233Z,27.87
2022-12-11T21:15:53.843Z,27.83
2022-12-11T21:18:57.361Z,27.55
2022-12-11T21:21:59.463Z,27.64
2022-12-11T21:25:01.631Z,27.41
2022-12-11T21:28:04.019Z,28.20
2022-12-11T21:31:13.433Z,27.71
2022-12-11T21:34:18.316Z,27.85
2022-12-11T21:37:24.268Z,27.85
2022-12-11T21:40:26.391Z,27.86
2022-12-11T21:43:28.528Z,27.72
2022-12-11T21:46:30.785Z,27.96
2022-12-11T21:49:32.911Z,27.80
2022-12-11T21:52:37.348Z,27.87
2022-12-11T21:55:41.467Z,27.87
2022-12-11T21:58:44.089Z,27.76
2022-12-11T22:01:46.429Z,27.78
2022-12-11T22:04:48.655Z,27.74
2022-12-11T22:07:50.765Z,27.88
2022-12-11T22:10:52.912Z,28.04
2022-12-11T22:13:55.462Z,27.92
2022-12-11T22:16:58.430Z,27.86
2022-12-11T22:20:00.565Z,27.59
2022-12-11T22:23:02.744Z,27.78
2022-12-11T22:26:08.834Z,27.66
2022-12-11T22:29:10.906Z,27.71
2022-12-11T22:32:12.975Z,27.96
2022-12-11T22:35:15.535Z,27.70
2022-12-11T22:38:17.850Z,28.03
2022-12-11T22:41:24.642Z,27.73
2022-12-11T22:44:29.452Z,27.53
2022-12-11T22:47:31.523Z,27.79
2022-12-11T22:50:34.613Z,27.74
2022-12-11T22:53:36.755Z,27.65
2022-12-11T22:56:38.911Z,27.63
2022-12-11T22:59:41.224Z,27.73
2022-12-11T23:02:45.171Z,27.37
2022-12-11T23:05:47.379Z,27.62
2022-12-11T23:08:49.966Z,27.66
2022-12-11T23:11:52.362Z,27.85
2022-12-11T23:14:54.495Z,27.77
2022-12-11T23:17:56.635Z,27.81
2022-12-11T23:20:58.948Z,27.59
2022-12-11T23:24:01.343Z,27.62
2022-12-11T23:27:03.543Z,27.57
2022-12-11T23:30:06.291Z,27.50
2022-12-11T23:33:08.371Z,27.52
2022-12-11T23:36:11.195Z,27.58
2022-12-11T23:39:13.323Z,27.60
2022-12-11T23:42:16.618Z,27.56
2022-12-11T23:45:21.042Z,27.59
2022-12-11T23:48:23.822Z,27.66
2022-12-11T23:51:26.011Z,27.55
2022-12-11T23:54:28.176Z,27.49
2022-12-11T23:57:30.293Z,27.50
